sensor_id;sensor_type;location;lat;lon;timestamp;temperature;humidity
63371;DHT22;49504;48.336;14.472;2023-03-30T00:00:32;23.90;44.80
63371;DHT22;49504;48.336;14.472;2023-03-30T00:03:54;23.90;44.80
63371;DHT22;49504;48.336;14.472;2023-03-30T00:07:15;23.90;44.80
63371;DHT22;49504;48.336;14.472;2023-03-30T00:10:36;23.80;44.70
63371;DHT22;49504;48.336;14.472;2023-03-30T00:13:59;23.90;44.80
63371;DHT22;49504;48.336;14.472;2023-03-30T00:17:20;23.90;44.80
63371;DHT22;49504;48.336;14.472;2023-03-30T00:20:41;23.90;44.80
63371;DHT22;49504;48.336;14.472;2023-03-30T00:24:02;23.90;44.90
63371;DHT22;49504;48.336;14.472;2023-03-30T00:27:24;23.90;44.90
63371;DHT22;49504;48.336;14.472;2023-03-30T00:30:47;23.90;44.90
63371;DHT22;49504;48.336;14.472;2023-03-30T00:34:09;23.90;44.90
63371;DHT22;49504;48.336;14.472;2023-03-30T00:37:30;23.90;44.90
63371;DHT22;49504;48.336;14.472;2023-03-30T00:40:52;23.90;44.80
63371;DHT22;49504;48.336;14.472;2023-03-30T00:48:35;23.90;44.80
63371;DHT22;49504;48.336;14.472;2023-03-30T00:51:57;23.90;44.80
63371;DHT22;49504;48.336;14.472;2023-03-30T00:55:20;23.90;44.80
63371;DHT22;49504;48.336;14.472;2023-03-30T00:58:42;23.90;44.70
63371;DHT22;49504;48.336;14.472;2023-03-30T01:02:04;23.90;44.80
63371;DHT22;49504;48.336;14.472;2023-03-30T01:05:27;23.90;44.70
63371;DHT22;49504;48.336;14.472;2023-03-30T01:08:49;23.90;44.70
63371;DHT22;49504;48.336;14.472;2023-03-30T01:12:11;23.90;44.70
63371;DHT22;49504;48.336;14.472;2023-03-30T01:15:34;23.90;44.70
63371;DHT22;49504;48.336;14.472;2023-03-30T01:19:11;23.90;44.70
63371;DHT22;49504;48.336;14.472;2023-03-30T01:22:58;23.90;44.70
63371;DHT22;49504;48.336;14.472;2023-03-30T01:26:53;23.90;44.70
63371;DHT22;49504;48.336;14.472;2023-03-30T01:30:28;23.90;44.70
63371;DHT22;49504;48.336;14.472;2023-03-30T01:38:18;23.90;44.80
63371;DHT22;49504;48.336;14.472;2023-03-30T01:42:09;23.90;44.80
63371;DHT22;49504;48.336;14.472;2023-03-30T01:45:42;23.90;44.80
63371;DHT22;49504;48.336;14.472;2023-03-30T01:49:09;23.90;44.70
63371;DHT22;49504;48.336;14.472;2023-03-30T01:52:38;23.90;44.70
63371;DHT22;49504;48.336;14.472;2023-03-30T01:56:06;23.90;44.70
63371;DHT22;49504;48.336;14.472;2023-03-30T01:59:35;23.90;44.70
63371;DHT22;49504;48.336;14.472;2023-03-30T02:03:01;23.90;44.70
63371;DHT22;49504;48.336;14.472;2023-03-30T02:06:28;23.90;44.70
63371;DHT22;49504;48.336;14.472;2023-03-30T02:09:53;23.90;44.80
63371;DHT22;49504;48.336;14.472;2023-03-30T02:13:17;23.90;44.70
63371;DHT22;49504;48.336;14.472;2023-03-30T02:16:45;23.90;44.70
63371;DHT22;49504;48.336;14.472;2023-03-30T02:20:08;23.90;44.70
63371;DHT22;49504;48.336;14.472;2023-03-30T02:23:34;23.90;44.60
63371;DHT22;49504;48.336;14.472;2023-03-30T02:26:58;23.90;44.60
63371;DHT22;49504;48.336;14.472;2023-03-30T02:30:20;23.90;44.60
63371;DHT22;49504;48.336;14.472;2023-03-30T02:33:50;23.90;44.60
63371;DHT22;49504;48.336;14.472;2023-03-30T02:37:31;23.90;44.60
63371;DHT22;49504;48.336;14.472;2023-03-30T02:41:08;23.90;44.60
63371;DHT22;49504;48.336;14.472;2023-03-30T02:44:41;23.90;44.60
63371;DHT22;49504;48.336;14.472;2023-03-30T02:48:15;23.90;44.60
63371;DHT22;49504;48.336;14.472;2023-03-30T02:51:45;23.90;44.60
63371;DHT22;49504;48.336;14.472;2023-03-30T02:55:18;23.90;44.60
63371;DHT22;49504;48.336;14.472;2023-03-30T02:58:44;23.90;44.70
63371;DHT22;49504;48.336;14.472;2023-03-30T03:02:14;23.90;44.60
63371;DHT22;49504;48.336;14.472;2023-03-30T03:05:39;23.90;44.60
63371;DHT22;49504;48.336;14.472;2023-03-30T03:09:06;23.90;44.60
63371;DHT22;49504;48.336;14.472;2023-03-30T03:12:29;23.90;44.60
63371;DHT22;49504;48.336;14.472;2023-03-30T03:15:50;23.90;44.70
63371;DHT22;49504;48.336;14.472;2023-03-30T03:19:11;23.90;44.70
63371;DHT22;49504;48.336;14.472;2023-03-30T03:22:33;23.90;44.70
63371;DHT22;49504;48.336;14.472;2023-03-30T03:25:56;23.90;44.70
63371;DHT22;49504;48.336;14.472;2023-03-30T03:29:18;23.90;44.70
63371;DHT22;49504;48.336;14.472;2023-03-30T03:32:39;23.90;44.70
63371;DHT22;49504;48.336;14.472;2023-03-30T03:36:00;23.90;44.70
63371;DHT22;49504;48.336;14.472;2023-03-30T03:39:24;23.90;44.60
63371;DHT22;49504;48.336;14.472;2023-03-30T03:42:50;24.00;44.80
63371;DHT22;49504;48.336;14.472;2023-03-30T03:46:11;23.90;44.70
63371;DHT22;49504;48.336;14.472;2023-03-30T03:49:32;23.90;44.60
63371;DHT22;49504;48.336;14.472;2023-03-30T03:52:53;23.90;44.80
63371;DHT22;49504;48.336;14.472;2023-03-30T03:56:15;23.90;45.30
63371;DHT22;49504;48.336;14.472;2023-03-30T03:59:37;23.90;44.70
63371;DHT22;49504;48.336;14.472;2023-03-30T04:02:59;23.90;44.80
63371;DHT22;49504;48.336;14.472;2023-03-30T04:06:21;23.90;44.60
63371;DHT22;49504;48.336;14.472;2023-03-30T04:09:42;23.90;44.60
63371;DHT22;49504;48.336;14.472;2023-03-30T04:13:04;23.90;44.50
63371;DHT22;49504;48.336;14.472;2023-03-30T04:16:44;23.90;44.60
63371;DHT22;49504;48.336;14.472;2023-03-30T04:20:17;23.90;44.60
63371;DHT22;49504;48.336;14.472;2023-03-30T04:24:01;23.90;44.60
63371;DHT22;49504;48.336;14.472;2023-03-30T04:27:41;23.90;44.70
63371;DHT22;49504;48.336;14.472;2023-03-30T04:31:15;23.90;44.70
63371;DHT22;49504;48.336;14.472;2023-03-30T04:34:38;23.90;44.50
63371;DHT22;49504;48.336;14.472;2023-03-30T04:38:19;23.90;44.50
63371;DHT22;49504;48.336;14.472;2023-03-30T04:42:09;23.90;44.50
63371;DHT22;49504;48.336;14.472;2023-03-30T04:46:11;23.90;44.00
63371;DHT22;49504;48.336;14.472;2023-03-30T04:49:51;23.90;44.70
63371;DHT22;49504;48.336;14.472;2023-03-30T04:53:33;23.90;44.70
63371;DHT22;49504;48.336;14.472;2023-03-30T04:57:26;23.90;44.70
63371;DHT22;49504;48.336;14.472;2023-03-30T05:01:00;23.90;44.80
63371;DHT22;49504;48.336;14.472;2023-03-30T05:04:38;23.90;44.80
63371;DHT22;49504;48.336;14.472;2023-03-30T05:08:18;23.80;44.70
63371;DHT22;49504;48.336;14.472;2023-03-30T05:12:09;23.90;44.80
63371;DHT22;49504;48.336;14.472;2023-03-30T05:15:53;23.90;44.80
63371;DHT22;49504;48.336;14.472;2023-03-30T05:19:33;23.80;44.80
63371;DHT22;49504;48.336;14.472;2023-03-30T05:23:14;23.80;44.80
63371;DHT22;49504;48.336;14.472;2023-03-30T05:26:44;23.80;44.80
63371;DHT22;49504;48.336;14.472;2023-03-30T05:30:08;23.80;44.80
63371;DHT22;49504;48.336;14.472;2023-03-30T05:34:01;23.80;44.80
63371;DHT22;49504;48.336;14.472;2023-03-30T05:37:40;23.90;44.90
63371;DHT22;49504;48.336;14.472;2023-03-30T05:41:20;23.80;44.80
63371;DHT22;49504;48.336;14.472;2023-03-30T05:45:08;23.80;44.80
63371;DHT22;49504;48.336;14.472;2023-03-30T05:48:49;23.80;44.80
63371;DHT22;49504;48.336;14.472;2023-03-30T05:52:34;23.80;44.80
63371;DHT22;49504;48.336;14.472;2023-03-30T05:56:17;23.80;44.80
63371;DHT22;49504;48.336;14.472;2023-03-30T05:59:58;23.80;44.90
63371;DHT22;49504;48.336;14.472;2023-03-30T06:03:46;23.80;44.90
63371;DHT22;49504;48.336;14.472;2023-03-30T06:07:08;23.80;44.90
63371;DHT22;49504;48.336;14.472;2023-03-30T06:10:29;23.80;44.90
63371;DHT22;49504;48.336;14.472;2023-03-30T06:13:52;23.80;44.90
63371;DHT22;49504;48.336;14.472;2023-03-30T06:17:13;23.80;44.90
63371;DHT22;49504;48.336;14.472;2023-03-30T06:23:38;23.80;44.30
63371;DHT22;49504;48.336;14.472;2023-03-30T06:27:04;23.80;44.90
63371;DHT22;49504;48.336;14.472;2023-03-30T06:30:26;23.80;44.80
63371;DHT22;49504;48.336;14.472;2023-03-30T06:33:50;23.80;44.90
63371;DHT22;49504;48.336;14.472;2023-03-30T06:37:12;23.80;44.90
63371;DHT22;49504;48.336;14.472;2023-03-30T06:40:34;23.80;44.90
63371;DHT22;49504;48.336;14.472;2023-03-30T06:43:55;23.80;44.90
63371;DHT22;49504;48.336;14.472;2023-03-30T06:47:21;23.80;44.90
63371;DHT22;49504;48.336;14.472;2023-03-30T06:50:44;23.80;44.90
63371;DHT22;49504;48.336;14.472;2023-03-30T06:54:17;23.80;45.00
63371;DHT22;49504;48.336;14.472;2023-03-30T06:57:46;23.80;45.00
63371;DHT22;49504;48.336;14.472;2023-03-30T07:01:08;23.80;45.00
63371;DHT22;49504;48.336;14.472;2023-03-30T07:04:49;23.80;44.90
63371;DHT22;49504;48.336;14.472;2023-03-30T07:11:12;23.80;44.40
63371;DHT22;49504;48.336;14.472;2023-03-30T07:14:34;23.80;45.00
63371;DHT22;49504;48.336;14.472;2023-03-30T07:17:56;23.80;45.00
63371;DHT22;49504;48.336;14.472;2023-03-30T07:21:17;23.80;44.90
63371;DHT22;49504;48.336;14.472;2023-03-30T07:24:38;23.80;45.00
63371;DHT22;49504;48.336;14.472;2023-03-30T07:28:01;23.80;44.90
63371;DHT22;49504;48.336;14.472;2023-03-30T07:31:22;23.80;45.00
63371;DHT22;49504;48.336;14.472;2023-03-30T07:34:45;23.80;44.90
63371;DHT22;49504;48.336;14.472;2023-03-30T07:38:06;23.80;44.90
63371;DHT22;49504;48.336;14.472;2023-03-30T07:41:31;23.80;44.90
63371;DHT22;49504;48.336;14.472;2023-03-30T07:44:55;23.80;44.90
63371;DHT22;49504;48.336;14.472;2023-03-30T07:48:17;23.80;44.90
63371;DHT22;49504;48.336;14.472;2023-03-30T07:51:38;23.80;44.90
63371;DHT22;49504;48.336;14.472;2023-03-30T07:55:13;23.90;45.00
63371;DHT22;49504;48.336;14.472;2023-03-30T07:58:39;23.90;45.00
63371;DHT22;49504;48.336;14.472;2023-03-30T08:02:01;23.80;44.90
63371;DHT22;49504;48.336;14.472;2023-03-30T08:05:33;23.80;44.90
63371;DHT22;49504;48.336;14.472;2023-03-30T08:09:02;23.80;44.90
63371;DHT22;49504;48.336;14.472;2023-03-30T08:12:24;23.90;45.00
63371;DHT22;49504;48.336;14.472;2023-03-30T08:15:45;23.90;44.90
63371;DHT22;49504;48.336;14.472;2023-03-30T08:19:08;23.80;45.50
63371;DHT22;49504;48.336;14.472;2023-03-30T08:22:29;23.80;44.80
63371;DHT22;49504;48.336;14.472;2023-03-30T08:25:50;23.80;44.90
63371;DHT22;49504;48.336;14.472;2023-03-30T08:29:11;23.80;44.80
63371;DHT22;49504;48.336;14.472;2023-03-30T08:32:32;23.80;44.80
63371;DHT22;49504;48.336;14.472;2023-03-30T08:35:55;23.90;44.90
63371;DHT22;49504;48.336;14.472;2023-03-30T08:39:16;23.90;44.90
63371;DHT22;49504;48.336;14.472;2023-03-30T08:42:53;23.80;44.80
63371;DHT22;49504;48.336;14.472;2023-03-30T08:46:32;23.80;44.80
63371;DHT22;49504;48.336;14.472;2023-03-30T08:49:58;23.80;44.80
63371;DHT22;49504;48.336;14.472;2023-03-30T08:53:27;23.80;44.80
63371;DHT22;49504;48.336;14.472;2023-03-30T08:56:58;23.80;44.80
63371;DHT22;49504;48.336;14.472;2023-03-30T09:00:29;23.80;44.80
63371;DHT22;49504;48.336;14.472;2023-03-30T09:04:03;23.80;44.80
63371;DHT22;49504;48.336;14.472;2023-03-30T09:07:30;23.90;44.90
63371;DHT22;49504;48.336;14.472;2023-03-30T09:10:57;23.80;44.80
63371;DHT22;49504;48.336;14.472;2023-03-30T09:14:26;23.90;44.90
63371;DHT22;49504;48.336;14.472;2023-03-30T09:17:55;23.80;44.80
63371;DHT22;49504;48.336;14.472;2023-03-30T09:21:21;23.80;44.80
63371;DHT22;49504;48.336;14.472;2023-03-30T09:24:44;23.80;44.80
63371;DHT22;49504;48.336;14.472;2023-03-30T09:28:11;23.80;44.80
63371;DHT22;49504;48.336;14.472;2023-03-30T09:31:38;23.80;44.80
63371;DHT22;49504;48.336;14.472;2023-03-30T09:35:04;23.80;44.90
63371;DHT22;49504;48.336;14.472;2023-03-30T09:38:31;23.80;44.90
63371;DHT22;49504;48.336;14.472;2023-03-30T09:42:06;23.80;44.90
63371;DHT22;49504;48.336;14.472;2023-03-30T09:45:33;23.80;44.90
63371;DHT22;49504;48.336;14.472;2023-03-30T09:49:11;23.90;45.00
63371;DHT22;49504;48.336;14.472;2023-03-30T09:52:34;23.80;44.90
63371;DHT22;49504;48.336;14.472;2023-03-30T09:56:00;23.80;45.00
63371;DHT22;49504;48.336;14.472;2023-03-30T09:59:28;23.80;45.10
63371;DHT22;49504;48.336;14.472;2023-03-30T10:02:56;23.90;45.10
63371;DHT22;49504;48.336;14.472;2023-03-30T10:06:19;23.90;45.20
63371;DHT22;49504;48.336;14.472;2023-03-30T10:09:42;23.90;45.20
63371;DHT22;49504;48.336;14.472;2023-03-30T10:13:06;23.90;45.20
63371;DHT22;49504;48.336;14.472;2023-03-30T10:16:30;23.80;45.00
63371;DHT22;49504;48.336;14.472;2023-03-30T10:20:35;23.90;44.50
63371;DHT22;49504;48.336;14.472;2023-03-30T10:24:01;23.80;45.00
63371;DHT22;49504;48.336;14.472;2023-03-30T10:27:26;23.90;45.00
63371;DHT22;49504;48.336;14.472;2023-03-30T10:30:54;23.90;44.80
63371;DHT22;49504;48.336;14.472;2023-03-30T10:34:19;23.90;44.70
63371;DHT22;49504;48.336;14.472;2023-03-30T10:37:45;23.90;44.60
63371;DHT22;49504;48.336;14.472;2023-03-30T10:41:09;23.90;44.50
63371;DHT22;49504;48.336;14.472;2023-03-30T10:44:33;23.90;44.40
63371;DHT22;49504;48.336;14.472;2023-03-30T10:48:15;23.90;44.40
63371;DHT22;49504;48.336;14.472;2023-03-30T10:51:51;23.90;44.40
63371;DHT22;49504;48.336;14.472;2023-03-30T10:55:23;23.90;44.30
63371;DHT22;49504;48.336;14.472;2023-03-30T11:02:55;23.90;44.40
63371;DHT22;49504;48.336;14.472;2023-03-30T11:06:23;23.90;44.60
63371;DHT22;49504;48.336;14.472;2023-03-30T11:09:52;24.00;44.80
63371;DHT22;49504;48.336;14.472;2023-03-30T11:13:18;24.00;44.80
63371;DHT22;49504;48.336;14.472;2023-03-30T11:16:46;24.00;44.60
63371;DHT22;49504;48.336;14.472;2023-03-30T11:20:18;23.90;44.50
63371;DHT22;49504;48.336;14.472;2023-03-30T11:23:44;24.00;44.70
63371;DHT22;49504;48.336;14.472;2023-03-30T11:27:13;24.00;45.00
63371;DHT22;49504;48.336;14.472;2023-03-30T11:30:38;24.00;45.30
63371;DHT22;49504;48.336;14.472;2023-03-30T11:34:06;24.00;45.30
63371;DHT22;49504;48.336;14.472;2023-03-30T11:37:36;24.00;45.10
63371;DHT22;49504;48.336;14.472;2023-03-30T11:41:03;24.00;45.20
63371;DHT22;49504;48.336;14.472;2023-03-30T11:44:27;24.00;45.30
63371;DHT22;49504;48.336;14.472;2023-03-30T11:48:02;24.10;45.40
63371;DHT22;49504;48.336;14.472;2023-03-30T11:51:51;24.20;45.10
63371;DHT22;49504;48.336;14.472;2023-03-30T11:55:31;24.20;45.10
63371;DHT22;49504;48.336;14.472;2023-03-30T11:59:03;24.20;45.00
63371;DHT22;49504;48.336;14.472;2023-03-30T12:02:29;24.30;45.10
63371;DHT22;49504;48.336;14.472;2023-03-30T12:06:05;24.40;45.10
63371;DHT22;49504;48.336;14.472;2023-03-30T12:09:48;24.40;45.00
63371;DHT22;49504;48.336;14.472;2023-03-30T12:13:15;24.50;44.90
63371;DHT22;49504;48.336;14.472;2023-03-30T12:16:41;24.50;44.90
63371;DHT22;49504;48.336;14.472;2023-03-30T12:20:20;24.50;44.80
63371;DHT22;49504;48.336;14.472;2023-03-30T12:23:54;24.60;44.80
63371;DHT22;49504;48.336;14.472;2023-03-30T12:27:18;24.60;44.80
63371;DHT22;49504;48.336;14.472;2023-03-30T12:30:43;24.70;45.20
63371;DHT22;49504;48.336;14.472;2023-03-30T12:34:06;24.60;44.70
63371;DHT22;49504;48.336;14.472;2023-03-30T12:37:31;24.70;44.90
63371;DHT22;49504;48.336;14.472;2023-03-30T12:41:08;24.70;44.80
63371;DHT22;49504;48.336;14.472;2023-03-30T12:44:48;24.70;44.80
63371;DHT22;49504;48.336;14.472;2023-03-30T12:48:31;24.70;44.80
63371;DHT22;49504;48.336;14.472;2023-03-30T12:52:05;24.70;44.70
63371;DHT22;49504;48.336;14.472;2023-03-30T12:55:44;24.70;44.80
63371;DHT22;49504;48.336;14.472;2023-03-30T13:00:56;24.60;44.30
63371;DHT22;49504;48.336;14.472;2023-03-30T13:04:25;24.60;44.80
63371;DHT22;49504;48.336;14.472;2023-03-30T13:07:49;24.60;44.90
63371;DHT22;49504;48.336;14.472;2023-03-30T13:11:14;24.60;45.00
63371;DHT22;49504;48.336;14.472;2023-03-30T13:14:44;24.60;44.90
63371;DHT22;49504;48.336;14.472;2023-03-30T13:22:26;24.50;44.90
63371;DHT22;49504;48.336;14.472;2023-03-30T13:25:59;24.50;44.90
63371;DHT22;49504;48.336;14.472;2023-03-30T13:29:23;24.50;45.00
63371;DHT22;49504;48.336;14.472;2023-03-30T13:33:00;24.50;44.90
63371;DHT22;49504;48.336;14.472;2023-03-30T13:36:29;24.50;45.00
63371;DHT22;49504;48.336;14.472;2023-03-30T13:39:58;24.50;45.00
63371;DHT22;49504;48.336;14.472;2023-03-30T13:43:36;24.50;45.00
63371;DHT22;49504;48.336;14.472;2023-03-30T13:47:10;24.50;45.00
63371;DHT22;49504;48.336;14.472;2023-03-30T13:50:39;24.50;45.00
63371;DHT22;49504;48.336;14.472;2023-03-30T13:54:11;24.50;45.10
63371;DHT22;49504;48.336;14.472;2023-03-30T13:57:36;24.50;45.10
63371;DHT22;49504;48.336;14.472;2023-03-30T14:01:00;24.50;45.10
63371;DHT22;49504;48.336;14.472;2023-03-30T14:04:28;24.40;45.00
63371;DHT22;49504;48.336;14.472;2023-03-30T14:07:55;24.50;45.10
63371;DHT22;49504;48.336;14.472;2023-03-30T14:11:21;24.40;45.00
63371;DHT22;49504;48.336;14.472;2023-03-30T14:14:44;24.40;44.90
63371;DHT22;49504;48.336;14.472;2023-03-30T14:18:10;24.40;44.90
63371;DHT22;49504;48.336;14.472;2023-03-30T14:21:42;24.40;44.90
63371;DHT22;49504;48.336;14.472;2023-03-30T14:25:19;24.40;44.90
63371;DHT22;49504;48.336;14.472;2023-03-30T14:28:43;24.40;44.80
63371;DHT22;49504;48.336;14.472;2023-03-30T14:34:57;24.40;44.30
63371;DHT22;49504;48.336;14.472;2023-03-30T14:38:21;24.40;44.90
63371;DHT22;49504;48.336;14.472;2023-03-30T14:41:43;24.40;44.80
63371;DHT22;49504;48.336;14.472;2023-03-30T14:45:07;24.40;44.80
63371;DHT22;49504;48.336;14.472;2023-03-30T14:48:30;24.40;45.00
63371;DHT22;49504;48.336;14.472;2023-03-30T14:51:59;24.30;44.80
63371;DHT22;49504;48.336;14.472;2023-03-30T14:55:23;24.40;44.90
63371;DHT22;49504;48.336;14.472;2023-03-30T14:58:45;24.40;44.90
63371;DHT22;49504;48.336;14.472;2023-03-30T15:02:16;24.40;44.80
63371;DHT22;49504;48.336;14.472;2023-03-30T15:05:39;24.40;44.80
63371;DHT22;49504;48.336;14.472;2023-03-30T15:09:06;24.40;44.80
63371;DHT22;49504;48.336;14.472;2023-03-30T15:12:35;24.40;44.80
63371;DHT22;49504;48.336;14.472;2023-03-30T15:15:59;24.40;44.80
63371;DHT22;49504;48.336;14.472;2023-03-30T15:19:29;24.40;44.90
63371;DHT22;49504;48.336;14.472;2023-03-30T15:22:56;24.40;44.90
63371;DHT22;49504;48.336;14.472;2023-03-30T15:26:19;24.40;44.90
63371;DHT22;49504;48.336;14.472;2023-03-30T15:29:42;24.40;45.00
63371;DHT22;49504;48.336;14.472;2023-03-30T15:33:21;24.40;44.90
63371;DHT22;49504;48.336;14.472;2023-03-30T15:36:51;24.40;44.90
63371;DHT22;49504;48.336;14.472;2023-03-30T15:40:27;24.30;45.00
63371;DHT22;49504;48.336;14.472;2023-03-30T15:43:55;24.40;44.90
63371;DHT22;49504;48.336;14.472;2023-03-30T15:47:20;24.40;45.00
63371;DHT22;49504;48.336;14.472;2023-03-30T15:50:45;24.40;44.90
63371;DHT22;49504;48.336;14.472;2023-03-30T15:54:12;24.40;44.90
63371;DHT22;49504;48.336;14.472;2023-03-30T15:57:41;24.40;45.00
63371;DHT22;49504;48.336;14.472;2023-03-30T16:01:10;24.40;45.00
63371;DHT22;49504;48.336;14.472;2023-03-30T16:04:34;24.40;44.90
63371;DHT22;49504;48.336;14.472;2023-03-30T16:07:57;24.40;45.00
63371;DHT22;49504;48.336;14.472;2023-03-30T16:11:22;24.40;45.00
63371;DHT22;49504;48.336;14.472;2023-03-30T16:14:46;24.40;44.90
63371;DHT22;49504;48.336;14.472;2023-03-30T16:18:12;24.40;44.90
63371;DHT22;49504;48.336;14.472;2023-03-30T16:21:36;24.40;45.40
63371;DHT22;49504;48.336;14.472;2023-03-30T16:24:58;24.40;45.10
63371;DHT22;49504;48.336;14.472;2023-03-30T16:28:20;24.30;44.90
63371;DHT22;49504;48.336;14.472;2023-03-30T16:31:42;24.40;45.00
63371;DHT22;49504;48.336;14.472;2023-03-30T16:35:07;24.40;45.00
63371;DHT22;49504;48.336;14.472;2023-03-30T16:38:29;24.40;45.00
63371;DHT22;49504;48.336;14.472;2023-03-30T16:41:50;24.40;45.10
63371;DHT22;49504;48.336;14.472;2023-03-30T16:45:13;24.40;45.30
63371;DHT22;49504;48.336;14.472;2023-03-30T16:48:34;24.40;45.20
63371;DHT22;49504;48.336;14.472;2023-03-30T16:51:57;24.30;45.00
63371;DHT22;49504;48.336;14.472;2023-03-30T16:55:19;24.40;45.00
63371;DHT22;49504;48.336;14.472;2023-03-30T17:01:09;24.30;44.40
63371;DHT22;49504;48.336;14.472;2023-03-30T17:04:31;24.30;44.90
63371;DHT22;49504;48.336;14.472;2023-03-30T17:07:53;24.40;45.00
63371;DHT22;49504;48.336;14.472;2023-03-30T17:13:16;24.30;44.30
63371;DHT22;49504;48.336;14.472;2023-03-30T17:16:37;24.40;45.00
63371;DHT22;49504;48.336;14.472;2023-03-30T17:20:10;24.40;45.60
63371;DHT22;49504;48.336;14.472;2023-03-30T17:23:37;24.30;44.90
63371;DHT22;49504;48.336;14.472;2023-03-30T17:26:58;24.30;44.90
63371;DHT22;49504;48.336;14.472;2023-03-30T17:30:24;24.30;45.00
63371;DHT22;49504;48.336;14.472;2023-03-30T17:33:47;24.30;45.10
63371;DHT22;49504;48.336;14.472;2023-03-30T17:37:08;24.40;45.20
63371;DHT22;49504;48.336;14.472;2023-03-30T17:40:30;24.30;45.10
63371;DHT22;49504;48.336;14.472;2023-03-30T17:43:51;24.30;45.10
63371;DHT22;49504;48.336;14.472;2023-03-30T17:47:14;24.30;45.20
63371;DHT22;49504;48.336;14.472;2023-03-30T17:50:36;24.30;45.20
63371;DHT22;49504;48.336;14.472;2023-03-30T17:53:58;24.40;45.30
63371;DHT22;49504;48.336;14.472;2023-03-30T17:57:20;24.30;45.40
63371;DHT22;49504;48.336;14.472;2023-03-30T18:00:41;24.30;45.50
63371;DHT22;49504;48.336;14.472;2023-03-30T18:07:04;24.30;44.70
63371;DHT22;49504;48.336;14.472;2023-03-30T18:10:26;24.30;45.40
63371;DHT22;49504;48.336;14.472;2023-03-30T18:13:50;24.30;45.30
63371;DHT22;49504;48.336;14.472;2023-03-30T18:17:11;24.30;45.30
63371;DHT22;49504;48.336;14.472;2023-03-30T18:20:34;24.30;45.20
63371;DHT22;49504;48.336;14.472;2023-03-30T18:23:58;24.40;45.30
63371;DHT22;49504;48.336;14.472;2023-03-30T18:27:19;24.30;45.20
63371;DHT22;49504;48.336;14.472;2023-03-30T18:30:40;24.40;45.50
63371;DHT22;49504;48.336;14.472;2023-03-30T18:34:02;24.30;45.30
63371;DHT22;49504;48.336;14.472;2023-03-30T18:38:12;24.40;44.70
63371;DHT22;49504;48.336;14.472;2023-03-30T18:41:34;24.30;45.20
63371;DHT22;49504;48.336;14.472;2023-03-30T18:44:55;24.30;45.30
63371;DHT22;49504;48.336;14.472;2023-03-30T18:48:18;24.40;45.50
63371;DHT22;49504;48.336;14.472;2023-03-30T18:51:40;24.30;45.40
63371;DHT22;49504;48.336;14.472;2023-03-30T18:55:03;24.40;45.40
63371;DHT22;49504;48.336;14.472;2023-03-30T18:58:26;24.30;45.40
63371;DHT22;49504;48.336;14.472;2023-03-30T19:01:48;24.30;45.60
63371;DHT22;49504;48.336;14.472;2023-03-30T19:05:10;24.30;45.50
63371;DHT22;49504;48.336;14.472;2023-03-30T19:08:31;24.40;45.50
63371;DHT22;49504;48.336;14.472;2023-03-30T19:11:54;24.40;45.40
63371;DHT22;49504;48.336;14.472;2023-03-30T19:15:18;24.30;45.20
63371;DHT22;49504;48.336;14.472;2023-03-30T19:18:41;24.40;45.00
63371;DHT22;49504;48.336;14.472;2023-03-30T19:22:02;24.30;44.90
63371;DHT22;49504;48.336;14.472;2023-03-30T19:25:26;24.40;45.00
63371;DHT22;49504;48.336;14.472;2023-03-30T19:28:49;24.30;45.10
63371;DHT22;49504;48.336;14.472;2023-03-30T19:32:10;24.30;45.10
63371;DHT22;49504;48.336;14.472;2023-03-30T19:35:31;24.30;45.00
63371;DHT22;49504;48.336;14.472;2023-03-30T19:38:53;24.30;44.90
63371;DHT22;49504;48.336;14.472;2023-03-30T19:42:14;24.30;44.90
63371;DHT22;49504;48.336;14.472;2023-03-30T19:45:36;24.30;44.90
63371;DHT22;49504;48.336;14.472;2023-03-30T19:48:57;24.30;44.90
63371;DHT22;49504;48.336;14.472;2023-03-30T19:52:19;24.30;44.90
63371;DHT22;49504;48.336;14.472;2023-03-30T19:55:40;24.30;44.90
63371;DHT22;49504;48.336;14.472;2023-03-30T19:59:01;24.30;44.90
63371;DHT22;49504;48.336;14.472;2023-03-30T20:02:36;24.30;44.80
63371;DHT22;49504;48.336;14.472;2023-03-30T20:05:57;24.30;44.70
63371;DHT22;49504;48.336;14.472;2023-03-30T20:09:20;24.30;44.70
63371;DHT22;49504;48.336;14.472;2023-03-30T20:12:41;24.30;44.70
63371;DHT22;49504;48.336;14.472;2023-03-30T20:16:03;24.30;44.70
63371;DHT22;49504;48.336;14.472;2023-03-30T20:19:25;24.30;44.70
63371;DHT22;49504;48.336;14.472;2023-03-30T20:22:46;24.20;44.70
63371;DHT22;49504;48.336;14.472;2023-03-30T20:26:07;24.20;44.60
63371;DHT22;49504;48.336;14.472;2023-03-30T20:29:29;24.30;45.50
63371;DHT22;49504;48.336;14.472;2023-03-30T20:32:50;24.30;44.90
63371;DHT22;49504;48.336;14.472;2023-03-30T20:36:12;24.30;44.90
63371;DHT22;49504;48.336;14.472;2023-03-30T20:39:33;24.20;44.70
63371;DHT22;49504;48.336;14.472;2023-03-30T20:42:55;24.30;44.80
63371;DHT22;49504;48.336;14.472;2023-03-30T20:46:18;24.20;44.80
63371;DHT22;49504;48.336;14.472;2023-03-30T20:49:40;24.20;44.80
63371;DHT22;49504;48.336;14.472;2023-03-30T20:53:03;24.20;44.70
63371;DHT22;49504;48.336;14.472;2023-03-30T20:56:24;24.20;44.80
63371;DHT22;49504;48.336;14.472;2023-03-30T20:59:45;24.20;44.80
63371;DHT22;49504;48.336;14.472;2023-03-30T21:03:06;24.20;44.80
63371;DHT22;49504;48.336;14.472;2023-03-30T21:06:29;24.20;44.80
63371;DHT22;49504;48.336;14.472;2023-03-30T21:09:52;24.20;44.90
63371;DHT22;49504;48.336;14.472;2023-03-30T21:13:14;24.30;45.00
63371;DHT22;49504;48.336;14.472;2023-03-30T21:16:35;24.30;45.10
63371;DHT22;49504;48.336;14.472;2023-03-30T21:19:57;24.20;45.00
63371;DHT22;49504;48.336;14.472;2023-03-30T21:23:18;24.20;45.10
63371;DHT22;49504;48.336;14.472;2023-03-30T21:26:41;24.20;45.10
63371;DHT22;49504;48.336;14.472;2023-03-30T21:30:02;24.20;45.10
63371;DHT22;49504;48.336;14.472;2023-03-30T21:33:25;24.20;45.10
63371;DHT22;49504;48.336;14.472;2023-03-30T21:36:47;24.20;45.20
63371;DHT22;49504;48.336;14.472;2023-03-30T21:40:11;24.20;45.10
63371;DHT22;49504;48.336;14.472;2023-03-30T21:43:35;24.20;45.20
63371;DHT22;49504;48.336;14.472;2023-03-30T21:46:57;24.20;45.10
63371;DHT22;49504;48.336;14.472;2023-03-30T21:50:19;24.20;45.20
63371;DHT22;49504;48.336;14.472;2023-03-30T21:53:41;24.20;45.20
63371;DHT22;49504;48.336;14.472;2023-03-30T21:57:03;24.20;45.30
63371;DHT22;49504;48.336;14.472;2023-03-30T22:00:25;24.20;45.30